Time;durP1;ratioP1;P1;durP2;ratioP2;P2;SDS_P1;SDS_P2;PMS_P1;PMS_P2;Temp;Humidity;BMP_temperature;BMP_pressure;BME280_temperature;BME280_humidity;BME280_pressure;Samples;Min_cycle;Max_cycle;Signal;HPM_P1;HPM_P2
2023/04/02 00:01:46;;;;;;;;;3.50;3.50;;;;;;;;5050310;28;11883;-93
2023/04/02 00:04:22;;;;;;;;;3.75;3.75;;;;;;;;5051233;28;11131;-92
2023/04/02 00:06:53;;;;;;;;;5.50;3.50;;;;;;;;5051626;28;11746;-93
2023/04/02 00:09:37;;;;;;;;;3.25;3.25;;;;;;;;5052293;28;10935;-91
2023/04/02 00:12:19;;;;;;;;;5.00;5.00;;;;;;;;5040922;28;10901;-92
2023/04/02 00:14:53;;;;;;;;;6.50;3.00;;;;;;;;5050897;28;11000;-91
2023/04/02 00:17:23;;;;;;;;;4.25;4.00;;;;;;;;5051088;28;10925;-94
2023/04/02 00:19:55;;;;;;;;;2.00;2.00;;;;;;;;5053609;28;10844;-90
2023/04/02 00:22:26;;;;;;;;;2.00;2.00;;;;;;;;5058255;28;10860;-92
2023/04/02 00:24:55;;;;;;;;;1.75;1.75;;;;;;;;5055722;28;10938;-88
2023/04/02 00:27:25;;;;;;;;;2.00;2.00;;;;;;;;5053759;28;10862;-95
2023/04/02 00:29:55;;;;;;;;;2.00;2.00;;;;;;;;5053231;28;10848;-94
2023/04/02 00:32:26;;;;;;;;;3.00;3.00;;;;;;;;5064817;28;10890;-96
2023/04/02 00:34:56;;;;;;;;;3.00;2.00;;;;;;;;5056376;28;11022;-95
2023/04/02 00:37:26;;;;;;;;;6.50;2.00;;;;;;;;5030454;28;11206;-95
2023/04/02 00:39:58;;;;;;;;;2.00;2.00;;;;;;;;5044457;28;11046;-90
2023/04/02 00:42:26;;;;;;;;;1.00;1.00;;;;;;;;5032720;28;11012;-92
2023/04/02 00:44:57;;;;;;;;;2.00;2.00;;;;;;;;5024875;28;11156;-92
2023/04/02 00:47:27;;;;;;;;;1.50;1.50;;;;;;;;5051502;28;11033;-91
2023/04/02 00:49:59;;;;;;;;;2.75;2.50;;;;;;;;5057998;28;11720;-89
2023/04/02 00:52:29;;;;;;;;;3.00;1.75;;;;;;;;5037287;28;11140;-93
2023/04/02 00:55:03;;;;;;;;;1.00;1.00;;;;;;;;5054292;28;10991;-96
2023/04/02 00:57:32;;;;;;;;;3.00;3.00;;;;;;;;5043925;28;10973;-95
2023/04/02 01:00:10;;;;;;;;;2.00;2.00;;;;;;;;5049973;28;11128;-94
2023/04/02 01:02:39;;;;;;;;;1.00;1.00;;;;;;;;5049755;28;10850;-94
2023/04/02 01:05:24;;;;;;;;;5.25;2.00;;;;;;;;5034111;28;11034;-93
2023/04/02 01:08:01;;;;;;;;;2.00;2.00;;;;;;;;5045785;28;10919;-95
2023/04/02 01:10:42;;;;;;;;;2.00;2.00;;;;;;;;5049881;28;10962;-95
2023/04/02 01:13:18;;;;;;;;;1.75;1.75;;;;;;;;5049884;28;11054;-95
2023/04/02 01:15:53;;;;;;;;;3.00;3.00;;;;;;;;5065952;28;10833;-96
2023/04/02 01:18:32;;;;;;;;;2.00;2.00;;;;;;;;5055170;28;10993;-95
2023/04/02 01:21:17;;;;;;;;;3.50;3.50;;;;;;;;5053446;28;11071;-92
2023/04/02 01:23:54;;;;;;;;;6.75;4.00;;;;;;;;5053964;28;10984;-94
2023/04/02 01:26:32;;;;;;;;;3.75;3.00;;;;;;;;5049680;28;11068;-94
2023/04/02 01:29:14;;;;;;;;;2.25;2.25;;;;;;;;5049563;28;11029;-93
2023/04/02 01:31:42;;;;;;;;;4.00;2.75;;;;;;;;5031281;28;11075;-93
2023/04/02 01:34:14;;;;;;;;;2.25;2.25;;;;;;;;5031922;28;11113;-95
2023/04/02 01:36:47;;;;;;;;;4.00;4.00;;;;;;;;5050207;28;11080;-94
2023/04/02 01:39:25;;;;;;;;;4.50;4.50;;;;;;;;5050756;28;11166;-92
2023/04/02 01:41:59;;;;;;;;;4.50;3.25;;;;;;;;5051801;28;11573;-92
2023/04/02 01:44:31;;;;;;;;;5.50;5.50;;;;;;;;5052337;28;11440;-94
2023/04/02 01:47:02;;;;;;;;;7.75;5.00;;;;;;;;5052636;28;11458;-95
2023/04/02 01:49:30;;;;;;;;;5.50;5.50;;;;;;;;5040511;28;11576;-96
2023/04/02 01:51:57;;;;;;;;;9.50;8.50;;;;;;;;5058316;28;11517;-94
2023/04/02 01:54:27;;;;;;;;;7.50;7.50;;;;;;;;5054878;28;11517;-96
2023/04/02 01:56:58;;;;;;;;;8.75;8.75;;;;;;;;5057343;28;11434;-92
2023/04/02 01:59:28;;;;;;;;;10.00;8.00;;;;;;;;5055799;28;11561;-94
2023/04/02 02:02:02;;;;;;;;;12.50;9.00;;;;;;;;5037259;28;11458;-91
2023/04/02 02:04:30;;;;;;;;;10.75;9.75;;;;;;;;5053550;28;11579;-93
2023/04/02 02:06:59;;;;;;;;;8.25;8.25;;;;;;;;5053571;28;11635;-95
2023/04/02 02:09:29;;;;;;;;;16.25;12.50;;;;;;;;5052926;28;11386;-94
2023/04/02 02:11:57;;;;;;;;;10.25;10.25;;;;;;;;5047106;28;11524;-92
2023/04/02 02:14:28;;;;;;;;;13.50;12.75;;;;;;;;5054000;28;11463;-94
2023/04/02 02:16:58;;;;;;;;;9.75;8.00;;;;;;;;5057672;28;11532;-92
2023/04/02 02:19:30;;;;;;;;;13.00;13.00;;;;;;;;5061670;28;11645;-90
2023/04/02 02:22:01;;;;;;;;;15.00;15.00;;;;;;;;5062261;28;11430;-92
2023/04/02 02:24:32;;;;;;;;;19.75;11.00;;;;;;;;5060968;28;11483;-91
2023/04/02 02:27:14;;;;;;;;;10.25;10.00;;;;;;;;5035236;28;11489;-91
2023/04/02 02:29:44;;;;;;;;;15.75;14.75;;;;;;;;5047199;28;11564;-93
2023/04/02 02:32:13;;;;;;;;;12.75;12.00;;;;;;;;5053298;28;11406;-93
2023/04/02 02:34:43;;;;;;;;;11.25;11.25;;;;;;;;5044428;28;11563;-92
2023/04/02 02:37:15;;;;;;;;;14.75;13.25;;;;;;;;5047676;28;11482;-92
2023/04/02 02:39:44;;;;;;;;;15.25;15.25;;;;;;;;5040131;28;11467;-91
2023/04/02 02:42:16;;;;;;;;;15.00;12.50;;;;;;;;5052270;28;11621;-91
2023/04/02 02:44:47;;;;;;;;;14.75;14.75;;;;;;;;5051377;28;11476;-90
2023/04/02 02:47:16;;;;;;;;;15.75;15.75;;;;;;;;5060570;28;11567;-91
2023/04/02 02:49:48;;;;;;;;;14.75;11.25;;;;;;;;5058227;28;11686;-90
2023/04/02 02:52:18;;;;;;;;;10.25;10.25;;;;;;;;5053894;28;11480;-91
2023/04/02 02:54:48;;;;;;;;;18.50;14.25;;;;;;;;5037486;28;11493;-92
2023/04/02 02:57:20;;;;;;;;;15.00;13.50;;;;;;;;5052638;28;11496;-91
2023/04/02 02:59:51;;;;;;;;;16.00;14.75;;;;;;;;5050724;28;11538;-94
2023/04/02 03:02:18;;;;;;;;;8.50;6.00;;;;;;;;5056389;28;11541;-95
2023/04/02 03:04:48;;;;;;;;;15.00;13.75;;;;;;;;5038241;28;11504;-93
2023/04/02 03:07:18;;;;;;;;;18.25;14.00;;;;;;;;5057871;28;11508;-93
2023/04/02 03:09:52;;;;;;;;;19.50;15.25;;;;;;;;5053437;28;12239;-94
2023/04/02 03:12:33;;;;;;;;;19.75;15.00;;;;;;;;5053511;28;11487;-92
2023/04/02 03:15:06;;;;;;;;;16.50;14.75;;;;;;;;5055725;28;11544;-94
2023/04/02 03:17:36;;;;;;;;;18.75;16.25;;;;;;;;5059934;28;11495;-92
2023/04/02 03:20:08;;;;;;;;;16.75;15.75;;;;;;;;5029474;28;11550;-93
2023/04/02 03:22:40;;;;;;;;;15.50;15.50;;;;;;;;5051371;28;11494;-93
2023/04/02 03:25:21;;;;;;;;;15.75;14.50;;;;;;;;5040621;28;11573;-93
2023/04/02 03:27:49;;;;;;;;;17.25;16.00;;;;;;;;5019687;28;11496;-90
2023/04/02 03:30:28;;;;;;;;;15.75;11.75;;;;;;;;5051038;28;11493;-93
2023/04/02 03:32:58;;;;;;;;;19.00;15.00;;;;;;;;5053092;28;11541;-93
2023/04/02 03:35:32;;;;;;;;;16.00;12.00;;;;;;;;5056410;28;11599;-96
2023/04/02 03:38:02;;;;;;;;;19.25;16.00;;;;;;;;5058327;28;11630;-95
2023/04/02 03:40:34;;;;;;;;;16.50;9.75;;;;;;;;5051465;28;11487;-96
2023/04/02 03:43:05;;;;;;;;;17.00;17.00;;;;;;;;5052999;28;11618;-96
2023/04/02 03:45:38;;;;;;;;;20.75;18.25;;;;;;;;5059255;28;11470;-96
2023/04/02 03:48:10;;;;;;;;;20.50;18.00;;;;;;;;5057650;28;11606;-94
2023/04/02 03:50:44;;;;;;;;;21.25;16.75;;;;;;;;5051589;28;11617;-94
2023/04/02 03:53:12;;;;;;;;;19.00;19.00;;;;;;;;5045829;28;11512;-94
2023/04/02 03:55:41;;;;;;;;;22.75;20.00;;;;;;;;5010732;28;11488;-95
2023/04/02 03:58:17;;;;;;;;;21.00;20.75;;;;;;;;5055482;28;11491;-90
2023/04/02 04:00:51;;;;;;;;;19.50;19.50;;;;;;;;5051094;28;11501;-89
2023/04/02 04:03:23;;;;;;;;;23.00;20.00;;;;;;;;5038592;28;11486;-89
2023/04/02 04:05:53;;;;;;;;;29.75;24.00;;;;;;;;5049777;28;11544;-89
2023/04/02 04:08:25;;;;;;;;;23.25;21.00;;;;;;;;5050562;28;11489;-90
2023/04/02 04:10:53;;;;;;;;;21.00;18.75;;;;;;;;5049011;28;11525;-89
2023/04/02 04:13:25;;;;;;;;;24.75;24.50;;;;;;;;5054472;28;11479;-92
2023/04/02 04:15:58;;;;;;;;;25.25;23.75;;;;;;;;5050820;28;11495;-92
2023/04/02 04:18:33;;;;;;;;;28.75;27.75;;;;;;;;5057637;28;11536;-93
2023/04/02 04:21:03;;;;;;;;;23.50;22.50;;;;;;;;5051668;28;11528;-92
2023/04/02 04:23:32;;;;;;;;;22.50;20.75;;;;;;;;5045116;28;11579;-92
2023/04/02 04:26:04;;;;;;;;;30.75;26.75;;;;;;;;5049758;28;11505;-92
2023/04/02 04:28:37;;;;;;;;;26.50;21.25;;;;;;;;5047326;28;11484;-91
2023/04/02 04:31:17;;;;;;;;;18.50;16.75;;;;;;;;5030349;28;11460;-91
2023/04/02 04:33:49;;;;;;;;;24.75;23.50;;;;;;;;5046249;28;11552;-91
2023/04/02 04:36:27;;;;;;;;;23.50;21.75;;;;;;;;5049592;28;11573;-92
2023/04/02 04:38:58;;;;;;;;;20.75;18.75;;;;;;;;5036201;28;11498;-92
2023/04/02 04:41:28;;;;;;;;;25.25;25.25;;;;;;;;5040293;28;11507;-92
2023/04/02 04:43:59;;;;;;;;;26.75;25.50;;;;;;;;5055214;28;11477;-92
2023/04/02 04:46:32;;;;;;;;;25.00;22.00;;;;;;;;5055026;28;11512;-93
2023/04/02 04:49:05;;;;;;;;;26.75;21.75;;;;;;;;5049533;28;11522;-93
2023/04/02 04:51:37;;;;;;;;;19.50;18.00;;;;;;;;5049652;28;11533;-94
2023/04/02 04:54:04;;;;;;;;;32.25;26.00;;;;;;;;5049027;28;11636;-89
2023/04/02 04:56:32;;;;;;;;;34.50;23.00;;;;;;;;5031467;28;11640;-91
2023/04/02 04:59:03;;;;;;;;;16.25;15.75;;;;;;;;5049584;28;11502;-90
2023/04/02 05:01:37;;;;;;;;;18.50;18.00;;;;;;;;5048784;28;11439;-90
2023/04/02 05:04:11;;;;;;;;;22.00;20.75;;;;;;;;5049399;28;11559;-91
2023/04/02 05:06:41;;;;;;;;;29.50;22.75;;;;;;;;5049678;28;11479;-93
2023/04/02 05:09:15;;;;;;;;;18.75;15.00;;;;;;;;5050691;28;11511;-90
2023/04/02 05:11:46;;;;;;;;;28.25;23.25;;;;;;;;5055223;28;11641;-89
2023/04/02 05:14:21;;;;;;;;;17.75;17.75;;;;;;;;5056541;28;11610;-93
2023/04/02 05:16:57;;;;;;;;;28.75;21.00;;;;;;;;5060884;28;11560;-94
2023/04/02 05:19:29;;;;;;;;;24.25;17.50;;;;;;;;5047534;28;11595;-78
2023/04/02 05:22:00;;;;;;;;;22.50;20.00;;;;;;;;5050821;28;11542;-76
2023/04/02 05:24:47;;;;;;;;;21.50;19.75;;;;;;;;5036340;28;12295;-72
2023/04/02 05:27:25;;;;;;;;;16.25;16.25;;;;;;;;5047502;28;11487;-73
2023/04/02 05:29:58;;;;;;;;;28.75;22.00;;;;;;;;5047402;28;11548;-74
2023/04/02 05:32:30;;;;;;;;;20.50;20.25;;;;;;;;5046935;28;11458;-78
2023/04/02 05:34:58;;;;;;;;;20.50;17.50;;;;;;;;5047137;28;11466;-78
2023/04/02 05:37:29;;;;;;;;;24.00;21.25;;;;;;;;5047138;28;11510;-76
2023/04/02 05:39:58;;;;;;;;;22.75;22.00;;;;;;;;5047580;28;12350;-76
2023/04/02 05:42:28;;;;;;;;;21.25;19.75;;;;;;;;5047246;28;11545;-77
2023/04/02 05:45:08;;;;;;;;;22.75;20.75;;;;;;;;5047670;28;11530;-76
2023/04/02 05:47:39;;;;;;;;;20.75;19.50;;;;;;;;5046927;28;11506;-77
2023/04/02 05:50:20;;;;;;;;;22.75;22.00;;;;;;;;5046701;28;11604;-74
2023/04/02 05:52:51;;;;;;;;;26.25;22.75;;;;;;;;5047174;28;11487;-75
2023/04/02 05:55:36;;;;;;;;;26.25;24.00;;;;;;;;5046981;28;11483;-77
2023/04/02 05:58:07;;;;;;;;;29.00;25.25;;;;;;;;5047233;28;12304;-76
2023/04/02 06:01:07;;;;;;;;;30.75;27.00;;;;;;;;5046622;28;11536;-77
2023/04/02 06:03:43;;;;;;;;;25.25;19.75;;;;;;;;5047391;28;11642;-77
2023/04/02 06:06:17;;;;;;;;;21.50;21.00;;;;;;;;5048216;28;11507;-77
2023/04/02 06:08:50;;;;;;;;;25.75;25.75;;;;;;;;5038121;28;11485;-77
2023/04/02 06:11:20;;;;;;;;;23.25;23.00;;;;;;;;5050853;28;11505;-76
2023/04/02 06:13:47;;;;;;;;;24.00;21.75;;;;;;;;5049630;28;11489;-75
2023/04/02 06:16:15;;;;;;;;;30.75;29.00;;;;;;;;5044837;28;11483;-73
2023/04/02 06:18:44;;;;;;;;;26.25;24.50;;;;;;;;5047601;28;11492;-72
2023/04/02 06:21:15;;;;;;;;;22.50;19.25;;;;;;;;5035770;28;11553;-71
2023/04/02 06:23:47;;;;;;;;;23.50;21.50;;;;;;;;5046296;28;11500;-75
2023/04/02 06:26:18;;;;;;;;;23.75;23.00;;;;;;;;5040222;28;11575;-72
2023/04/02 06:28:48;;;;;;;;;17.75;16.00;;;;;;;;5046299;28;11522;-73
2023/04/02 06:31:23;;;;;;;;;20.75;18.25;;;;;;;;5046382;28;11446;-77
2023/04/02 06:33:53;;;;;;;;;24.00;22.25;;;;;;;;5045993;28;11475;-75
2023/04/02 06:36:21;;;;;;;;;26.25;19.75;;;;;;;;5038788;28;11649;-78
2023/04/02 06:38:49;;;;;;;;;20.50;20.50;;;;;;;;5050241;28;11486;-77
2023/04/02 06:41:20;;;;;;;;;23.50;20.75;;;;;;;;5037884;28;11566;-74
2023/04/02 06:43:51;;;;;;;;;29.50;25.00;;;;;;;;5049557;28;11485;-77
2023/04/02 06:46:22;;;;;;;;;22.25;21.00;;;;;;;;5050200;28;11495;-76
2023/04/02 06:48:52;;;;;;;;;24.25;20.25;;;;;;;;5049611;28;12191;-77
2023/04/02 06:51:21;;;;;;;;;23.75;22.00;;;;;;;;5049991;28;11495;-76
2023/04/02 06:53:50;;;;;;;;;28.00;22.00;;;;;;;;5049776;28;12385;-78
2023/04/02 06:56:25;;;;;;;;;22.75;20.75;;;;;;;;5050970;28;11485;-77
2023/04/02 06:58:53;;;;;;;;;19.00;16.75;;;;;;;;5051249;28;11475;-74
2023/04/02 07:01:23;;;;;;;;;20.50;20.50;;;;;;;;5050873;28;11433;-77
2023/04/02 07:03:52;;;;;;;;;17.75;17.00;;;;;;;;5048545;28;11509;-77
2023/04/02 07:06:21;;;;;;;;;20.25;17.25;;;;;;;;5049115;28;11507;-75
2023/04/02 07:08:49;;;;;;;;;19.00;19.00;;;;;;;;5049727;28;11468;-74
2023/04/02 07:11:17;;;;;;;;;20.75;13.75;;;;;;;;5049663;28;11497;-72
2023/04/02 07:13:45;;;;;;;;;16.00;15.75;;;;;;;;5049033;28;11445;-73
2023/04/02 07:16:15;;;;;;;;;17.75;17.75;;;;;;;;5049612;28;11500;-73
2023/04/02 07:18:43;;;;;;;;;17.75;17.75;;;;;;;;5049592;28;11564;-72
2023/04/02 07:21:12;;;;;;;;;20.25;16.50;;;;;;;;5044101;28;11502;-78
2023/04/02 07:23:39;;;;;;;;;20.25;18.00;;;;;;;;5043314;28;11581;-77
2023/04/02 07:26:08;;;;;;;;;26.75;23.25;;;;;;;;5046141;28;11560;-76
2023/04/02 07:28:36;;;;;;;;;22.00;20.75;;;;;;;;5049455;28;11501;-76
2023/04/02 07:31:03;;;;;;;;;20.00;19.25;;;;;;;;5039633;28;11579;-76
2023/04/02 07:33:31;;;;;;;;;23.00;19.25;;;;;;;;5040843;28;11478;-76
2023/04/02 07:35:59;;;;;;;;;24.75;22.00;;;;;;;;5048795;28;12472;-75
2023/04/02 07:38:27;;;;;;;;;18.00;15.75;;;;;;;;5049480;28;11654;-73
2023/04/02 07:40:54;;;;;;;;;18.00;18.00;;;;;;;;5048971;28;11609;-75
2023/04/02 07:43:23;;;;;;;;;18.00;16.75;;;;;;;;5049525;28;11631;-75
2023/04/02 07:45:50;;;;;;;;;19.75;18.00;;;;;;;;5048619;28;11497;-76
2023/04/02 07:48:17;;;;;;;;;19.00;17.00;;;;;;;;5048831;28;11477;-78
2023/04/02 07:50:44;;;;;;;;;16.75;16.75;;;;;;;;5048747;28;11526;-76
2023/04/02 07:53:29;;;;;;;;;18.25;18.25;;;;;;;;5048983;28;11484;-75
2023/04/02 07:55:56;;;;;;;;;24.50;18.00;;;;;;;;5039111;28;11531;-76
2023/04/02 07:58:23;;;;;;;;;21.50;18.25;;;;;;;;5049007;28;11531;-77
2023/04/02 08:00:51;;;;;;;;;22.00;20.50;;;;;;;;5049031;28;11405;-74
2023/04/02 08:03:18;;;;;;;;;20.50;19.50;;;;;;;;5050895;28;11524;-79
2023/04/02 08:05:51;;;;;;;;;10.00;10.00;;;;;;;;5054546;28;11496;-75
2023/04/02 08:08:18;;;;;;;;;22.00;17.00;;;;;;;;5044606;28;11576;-76
2023/04/02 08:10:47;;;;;;;;;19.00;17.00;;;;;;;;5050790;28;11621;-76
2023/04/02 08:13:14;;;;;;;;;18.00;17.75;;;;;;;;5048706;28;11467;-76
2023/04/02 08:15:41;;;;;;;;;22.50;19.50;;;;;;;;5048109;28;11532;-76
2023/04/02 08:18:09;;;;;;;;;23.75;22.00;;;;;;;;5041025;28;11604;-73
2023/04/02 08:20:36;;;;;;;;;19.75;17.75;;;;;;;;5038478;28;11539;-73
2023/04/02 08:23:04;;;;;;;;;24.75;17.25;;;;;;;;5047459;28;11501;-73
2023/04/02 08:25:31;;;;;;;;;19.50;18.75;;;;;;;;5048192;28;11479;-75
2023/04/02 08:28:01;;;;;;;;;21.00;19.25;;;;;;;;5046329;28;11534;-75
2023/04/02 08:30:28;;;;;;;;;22.75;20.75;;;;;;;;5040164;28;11532;-73
2023/04/02 08:32:55;;;;;;;;;28.00;22.25;;;;;;;;5048068;28;11499;-75
2023/04/02 08:35:23;;;;;;;;;23.75;20.75;;;;;;;;5047304;28;11470;-73
2023/04/02 08:37:50;;;;;;;;;20.25;18.75;;;;;;;;5047443;28;11470;-73
2023/04/02 08:40:22;;;;;;;;;21.75;18.75;;;;;;;;5047637;28;11495;-76
2023/04/02 08:43:02;;;;;;;;;25.25;19.25;;;;;;;;5047834;28;11494;-75
2023/04/02 08:45:41;;;;;;;;;21.25;18.75;;;;;;;;5047584;28;11546;-74
2023/04/02 08:48:10;;;;;;;;;21.75;21.25;;;;;;;;5047816;28;11539;-75
2023/04/02 08:50:39;;;;;;;;;19.50;18.25;;;;;;;;5047765;28;11493;-73
2023/04/02 08:53:09;;;;;;;;;19.75;17.50;;;;;;;;5048078;28;11494;-75
2023/04/02 08:55:41;;;;;;;;;21.00;19.75;;;;;;;;5047439;28;11490;-76
2023/04/02 08:58:21;;;;;;;;;22.00;22.00;;;;;;;;5034466;28;11514;-75
2023/04/02 09:00:53;;;;;;;;;19.00;16.75;;;;;;;;5047062;28;11471;-75
2023/04/02 09:03:25;;;;;;;;;22.00;17.75;;;;;;;;5033769;28;11646;-77
2023/04/02 09:05:53;;;;;;;;;24.00;23.50;;;;;;;;5047608;28;11559;-74
2023/04/02 09:08:23;;;;;;;;;28.25;26.00;;;;;;;;5047072;28;11523;-74
2023/04/02 09:10:53;;;;;;;;;22.50;21.25;;;;;;;;5047954;28;11517;-74
2023/04/02 09:13:25;;;;;;;;;21.00;17.00;;;;;;;;5047359;28;11583;-77
2023/04/02 09:15:57;;;;;;;;;29.00;22.25;;;;;;;;5047442;28;11482;-75
2023/04/02 09:18:27;;;;;;;;;28.50;26.75;;;;;;;;5047459;28;11509;-76
2023/04/02 09:20:57;;;;;;;;;26.75;23.00;;;;;;;;5047276;28;11520;-74
2023/04/02 09:23:26;;;;;;;;;13.25;13.25;;;;;;;;5047851;28;11486;-75
2023/04/02 09:25:54;;;;;;;;;13.00;10.50;;;;;;;;5046779;28;11492;-73
2023/04/02 09:28:24;;;;;;;;;16.25;14.50;;;;;;;;5047554;28;11442;-74
2023/04/02 09:31:10;;;;;;;;;16.50;16.00;;;;;;;;5046107;28;11434;-74
2023/04/02 09:33:42;;;;;;;;;15.75;15.50;;;;;;;;5046688;28;11605;-77
2023/04/02 09:36:19;;;;;;;;;20.50;20.25;;;;;;;;5046408;28;11539;-76
2023/04/02 09:39:00;;;;;;;;;31.25;27.25;;;;;;;;5047052;28;11474;-77
2023/04/02 09:41:29;;;;;;;;;12.50;12.50;;;;;;;;5048361;28;11504;-78
2023/04/02 09:44:13;;;;;;;;;23.50;20.00;;;;;;;;5047377;28;11579;-76
2023/04/02 09:46:52;;;;;;;;;44.50;38.50;;;;;;;;5047482;28;11490;-76
2023/04/02 09:49:23;;;;;;;;;37.25;33.50;;;;;;;;5035672;28;11589;-77
2023/04/02 09:52:07;;;;;;;;;24.00;24.00;;;;;;;;5047249;28;11563;-77
2023/04/02 09:54:40;;;;;;;;;30.75;27.75;;;;;;;;5047822;28;11479;-78
2023/04/02 09:57:17;;;;;;;;;23.50;22.50;;;;;;;;5049467;28;11525;-82
2023/04/02 09:59:45;;;;;;;;;30.25;29.50;;;;;;;;5048877;28;11494;-74
2023/04/02 10:02:25;;;;;;;;;28.00;28.00;;;;;;;;5038170;28;11559;-74
2023/04/02 10:04:52;;;;;;;;;37.00;29.75;;;;;;;;5047780;28;11499;-76
2023/04/02 10:07:42;;;;;;;;;27.50;21.50;;;;;;;;5046951;28;11591;-76
2023/04/02 10:10:21;;;;;;;;;25.75;23.25;;;;;;;;5048341;28;11518;-75
2023/04/02 10:12:56;;;;;;;;;30.25;27.50;;;;;;;;5052205;28;11510;-77
2023/04/02 10:15:30;;;;;;;;;31.50;25.25;;;;;;;;5050916;28;11506;-73
2023/04/02 10:18:02;;;;;;;;;28.00;26.75;;;;;;;;5050622;28;11488;-78
2023/04/02 10:20:30;;;;;;;;;36.75;34.25;;;;;;;;5050507;28;11526;-79
2023/04/02 10:22:57;;;;;;;;;27.50;24.50;;;;;;;;5050582;28;11706;-75
2023/04/02 10:25:27;;;;;;;;;20.25;20.00;;;;;;;;5040735;28;12263;-78
2023/04/02 10:27:59;;;;;;;;;23.25;21.25;;;;;;;;5049978;28;11483;-76
2023/04/02 10:30:32;;;;;;;;;23.00;21.25;;;;;;;;5050231;28;11411;-76
2023/04/02 10:33:03;;;;;;;;;30.00;28.25;;;;;;;;5050299;28;11508;-74
2023/04/02 10:35:43;;;;;;;;;32.75;30.50;;;;;;;;5043884;28;11510;-77
2023/04/02 10:38:23;;;;;;;;;25.00;21.25;;;;;;;;5050623;28;11788;-77
2023/04/02 10:40:57;;;;;;;;;20.50;19.25;;;;;;;;5049836;28;11514;-80
2023/04/02 10:43:52;;;;;;;;;23.50;22.00;;;;;;;;5050617;28;11505;-78
2023/04/02 10:46:25;;;;;;;;;38.75;30.50;;;;;;;;5040893;28;11949;-74
2023/04/02 10:48:57;;;;;;;;;42.25;34.50;;;;;;;;5049457;28;12425;-76
2023/04/02 10:51:30;;;;;;;;;22.75;22.00;;;;;;;;5050265;28;12372;-76
2023/04/02 10:54:03;;;;;;;;;29.25;27.75;;;;;;;;5050130;28;11576;-77
2023/04/02 10:56:32;;;;;;;;;24.00;19.50;;;;;;;;5049595;28;11620;-73
2023/04/02 10:59:04;;;;;;;;;50.25;39.25;;;;;;;;5050103;28;11511;-74
2023/04/02 11:01:34;;;;;;;;;24.50;23.75;;;;;;;;5049035;28;11499;-75
2023/04/02 11:04:05;;;;;;;;;28.25;25.00;;;;;;;;5050070;28;11465;-77
2023/04/02 11:06:37;;;;;;;;;26.50;25.75;;;;;;;;5049614;28;11494;-77
2023/04/02 11:09:06;;;;;;;;;27.50;25.25;;;;;;;;5049678;28;11532;-78
2023/04/02 11:11:39;;;;;;;;;21.25;18.75;;;;;;;;5049338;28;11501;-76
2023/04/02 11:14:12;;;;;;;;;25.00;22.00;;;;;;;;5049705;28;11495;-76
2023/04/02 11:16:41;;;;;;;;;34.00;29.25;;;;;;;;5048487;28;11552;-75
2023/04/02 11:19:25;;;;;;;;;20.75;20.75;;;;;;;;5049250;28;11552;-75
2023/04/02 11:21:55;;;;;;;;;20.75;20.00;;;;;;;;5039556;28;11562;-72
2023/04/02 11:24:37;;;;;;;;;26.75;23.00;;;;;;;;5049362;28;11619;-73
2023/04/02 11:27:07;;;;;;;;;22.00;19.75;;;;;;;;5049735;28;11496;-73
2023/04/02 11:29:37;;;;;;;;;18.25;17.00;;;;;;;;5037328;28;11474;-76
2023/04/02 11:32:38;;;;;;;;;23.75;23.75;;;;;;;;5037394;28;11409;-76
2023/04/02 11:35:27;;;;;;;;;23.50;23.00;;;;;;;;5040505;28;11856;-74
2023/04/02 11:37:56;;;;;;;;;22.25;22.25;;;;;;;;5047142;28;11537;-76
2023/04/02 11:40:43;;;;;;;;;28.75;27.25;;;;;;;;5049060;28;11643;-73
2023/04/02 11:43:51;;;;;;;;;25.25;23.75;;;;;;;;5041177;28;11582;-76
2023/04/02 11:46:40;;;;;;;;;25.75;25.50;;;;;;;;5040309;28;11499;-77
2023/04/02 11:49:41;;;;;;;;;39.25;35.00;;;;;;;;5027390;28;11469;-77
2023/04/02 11:52:24;;;;;;;;;23.75;23.50;;;;;;;;5047562;28;11651;-73
2023/04/02 11:55:00;;;;;;;;;25.25;24.75;;;;;;;;5037732;28;11619;-73
2023/04/02 11:57:43;;;;;;;;;29.25;29.25;;;;;;;;5038692;28;11590;-76
2023/04/02 12:00:28;;;;;;;;;25.50;23.50;;;;;;;;5047417;28;11504;-76
2023/04/02 12:03:08;;;;;;;;;35.00;27.50;;;;;;;;5042843;28;11510;-74
2023/04/02 12:05:41;;;;;;;;;34.75;27.50;;;;;;;;5035855;28;11483;-75
2023/04/02 12:08:21;;;;;;;;;29.25;27.75;;;;;;;;5048566;28;11482;-76
2023/04/02 12:10:55;;;;;;;;;25.50;25.50;;;;;;;;5048397;28;11502;-75
2023/04/02 12:13:57;;;;;;;;;32.25;28.00;;;;;;;;5048177;28;11551;-75
2023/04/02 12:16:30;;;;;;;;;35.25;33.50;;;;;;;;5048280;28;11555;-75
2023/04/02 12:18:57;;;;;;;;;34.75;32.25;;;;;;;;5048464;28;11629;-75
2023/04/02 12:21:28;;;;;;;;;32.50;30.25;;;;;;;;5048180;28;11518;-75
2023/04/02 12:23:58;;;;;;;;;34.00;32.00;;;;;;;;5048742;28;11615;-75
2023/04/02 12:26:30;;;;;;;;;37.75;34.25;;;;;;;;5048350;28;11530;-75
2023/04/02 12:29:18;;;;;;;;;35.00;32.75;;;;;;;;5048732;28;11532;-73
2023/04/02 12:31:46;;;;;;;;;27.00;25.50;;;;;;;;5034887;28;11449;-76
2023/04/02 12:34:16;;;;;;;;;32.75;32.75;;;;;;;;5046962;28;11524;-72
2023/04/02 12:36:58;;;;;;;;;39.00;30.75;;;;;;;;5048331;28;12313;-76
2023/04/02 12:39:25;;;;;;;;;21.00;20.50;;;;;;;;5048658;28;11586;-72
2023/04/02 12:41:53;;;;;;;;;35.00;34.50;;;;;;;;5047576;28;11476;-76
2023/04/02 12:44:23;;;;;;;;;41.50;38.00;;;;;;;;5047875;28;11620;-75
2023/04/02 12:46:52;;;;;;;;;55.00;43.00;;;;;;;;5046935;28;11553;-77
2023/04/02 12:49:35;;;;;;;;;57.50;44.50;;;;;;;;5047900;28;11546;-74
2023/04/02 12:52:06;;;;;;;;;40.50;36.75;;;;;;;;5046219;28;11635;-77
2023/04/02 12:54:36;;;;;;;;;55.25;44.50;;;;;;;;5047632;28;12443;-74
2023/04/02 12:57:28;;;;;;;;;60.00;48.25;;;;;;;;5047086;28;12324;-76
2023/04/02 12:59:56;;;;;;;;;49.25;40.00;;;;;;;;5047231;28;11603;-75
2023/04/02 13:02:25;;;;;;;;;55.50;45.00;;;;;;;;5047683;28;11542;-77
2023/04/02 13:04:55;;;;;;;;;60.25;48.25;;;;;;;;5047355;28;11556;-76
2023/04/02 13:07:29;;;;;;;;;50.25;41.00;;;;;;;;5045844;28;11772;-77
2023/04/02 13:10:09;;;;;;;;;41.75;34.25;;;;;;;;5044530;28;12331;-77
2023/04/02 13:12:38;;;;;;;;;45.50;37.75;;;;;;;;5046499;28;11518;-74
2023/04/02 13:15:10;;;;;;;;;43.00;37.00;;;;;;;;5047444;28;11546;-75
2023/04/02 13:17:40;;;;;;;;;33.00;32.50;;;;;;;;5047104;28;12293;-74
2023/04/02 13:20:30;;;;;;;;;23.25;23.25;;;;;;;;5047412;28;12431;-75
2023/04/02 13:22:59;;;;;;;;;34.25;32.50;;;;;;;;5044752;28;11547;-75
2023/04/02 13:25:30;;;;;;;;;29.25;29.25;;;;;;;;5047601;28;11510;-75
2023/04/02 13:27:57;;;;;;;;;35.75;32.75;;;;;;;;5047740;28;11576;-75
2023/04/02 13:30:27;;;;;;;;;38.00;36.00;;;;;;;;5046849;28;11432;-74
2023/04/02 13:32:55;;;;;;;;;36.75;34.50;;;;;;;;5039769;28;11557;-72
2023/04/02 13:35:22;;;;;;;;;47.25;40.50;;;;;;;;5046081;28;11594;-75
2023/04/02 13:37:50;;;;;;;;;43.00;37.75;;;;;;;;5035970;28;11537;-76
2023/04/02 13:40:19;;;;;;;;;58.00;47.00;;;;;;;;5047959;28;11695;-75
2023/04/02 13:42:48;;;;;;;;;48.00;39.50;;;;;;;;5049279;28;11567;-74
2023/04/02 13:45:21;;;;;;;;;50.50;43.75;;;;;;;;5055301;28;11541;-76
2023/04/02 13:47:48;;;;;;;;;35.25;33.00;;;;;;;;5044005;28;11579;-74
2023/04/02 13:50:18;;;;;;;;;51.75;43.00;;;;;;;;5049328;28;11542;-78
2023/04/02 13:52:45;;;;;;;;;44.00;39.25;;;;;;;;5042030;28;11552;-75
2023/04/02 13:55:13;;;;;;;;;46.00;40.75;;;;;;;;5038479;28;12510;-73
2023/04/02 13:57:42;;;;;;;;;71.75;56.75;;;;;;;;5047896;28;11540;-74
2023/04/02 14:00:10;;;;;;;;;58.50;48.50;;;;;;;;5048380;28;11733;-74
2023/04/02 14:02:42;;;;;;;;;46.50;40.50;;;;;;;;5050784;28;11577;-76
2023/04/02 14:05:19;;;;;;;;;37.50;34.00;;;;;;;;5045164;28;11632;-76
2023/04/02 14:07:55;;;;;;;;;52.50;43.25;;;;;;;;5049868;28;12324;-75
2023/04/02 14:10:29;;;;;;;;;56.75;45.50;;;;;;;;5050755;28;11606;-75
2023/04/02 14:13:12;;;;;;;;;48.25;38.25;;;;;;;;5050924;28;12450;-73
2023/04/02 14:15:51;;;;;;;;;64.50;50.75;;;;;;;;5050353;28;11638;-74
2023/04/02 14:18:35;;;;;;;;;41.75;37.75;;;;;;;;5050901;28;11548;-74
2023/04/02 14:21:11;;;;;;;;;53.75;43.25;;;;;;;;5046292;28;11562;-75
2023/04/02 14:23:49;;;;;;;;;43.50;37.25;;;;;;;;5050666;28;11498;-78
2023/04/02 14:26:21;;;;;;;;;46.50;40.50;;;;;;;;5051103;28;11581;-75
2023/04/02 14:28:56;;;;;;;;;48.75;42.00;;;;;;;;5054444;28;11548;-77
2023/04/02 14:31:30;;;;;;;;;38.50;32.00;;;;;;;;5044127;28;11611;-77
2023/04/02 14:34:03;;;;;;;;;42.00;37.75;;;;;;;;5050801;28;11550;-76
2023/04/02 14:36:39;;;;;;;;;41.50;38.50;;;;;;;;5050383;28;11677;-76
2023/04/02 14:39:12;;;;;;;;;37.75;35.00;;;;;;;;5049783;28;11502;-73
2023/04/02 14:41:45;;;;;;;;;39.25;37.25;;;;;;;;5050441;28;11529;-77
2023/04/02 14:44:13;;;;;;;;;40.00;37.25;;;;;;;;5050192;28;12393;-76
2023/04/02 14:46:41;;;;;;;;;45.50;37.75;;;;;;;;5050094;28;11544;-74
2023/04/02 14:49:18;;;;;;;;;42.25;38.50;;;;;;;;5049972;28;11684;-76
2023/04/02 14:51:49;;;;;;;;;44.75;38.50;;;;;;;;5049518;28;11553;-76
2023/04/02 14:54:22;;;;;;;;;45.25;38.00;;;;;;;;5050101;28;11556;-77